sensor_id;sensor_type;location;lat;lon;timestamp;P1;durP1;ratioP1;P2;durP2;ratioP2
71162;SDS011;58858;50.948;6.566;2024-03-22T00:00:43;23.08;;;13.23;;
71162;SDS011;58858;50.948;6.566;2024-03-22T00:10:45;26.80;;;13.45;;
71162;SDS011;58858;50.948;6.566;2024-03-22T00:20:46;18.42;;;11.18;;
71162;SDS011;58858;50.948;6.566;2024-03-22T00:30:47;20.00;;;12.30;;
71162;SDS011;58858;50.948;6.566;2024-03-22T00:40:48;19.15;;;10.88;;
71162;SDS011;58858;50.948;6.566;2024-03-22T00:50:49;18.98;;;10.80;;
71162;SDS011;58858;50.948;6.566;2024-03-22T01:00:50;22.10;;;10.95;;
71162;SDS011;58858;50.948;6.566;2024-03-22T01:10:51;17.38;;;10.88;;
71162;SDS011;58858;50.948;6.566;2024-03-22T01:20:52;21.35;;;10.45;;
71162;SDS011;58858;50.948;6.566;2024-03-22T01:30:53;20.33;;;11.73;;
71162;SDS011;58858;50.948;6.566;2024-03-22T01:40:55;16.77;;;9.98;;
71162;SDS011;58858;50.948;6.566;2024-03-22T01:51:02;17.45;;;10.63;;
71162;SDS011;58858;50.948;6.566;2024-03-22T02:01:03;37.00;;;26.05;;
71162;SDS011;58858;50.948;6.566;2024-03-22T02:11:04;26.05;;;16.77;;
71162;SDS011;58858;50.948;6.566;2024-03-22T02:21:05;22.35;;;12.50;;
71162;SDS011;58858;50.948;6.566;2024-03-22T02:31:06;23.80;;;12.77;;
71162;SDS011;58858;50.948;6.566;2024-03-22T02:41:07;15.85;;;10.02;;
71162;SDS011;58858;50.948;6.566;2024-03-22T02:51:08;17.42;;;9.38;;
71162;SDS011;58858;50.948;6.566;2024-03-22T03:01:09;14.20;;;8.98;;
71162;SDS011;58858;50.948;6.566;2024-03-22T03:11:11;20.20;;;11.02;;
71162;SDS011;58858;50.948;6.566;2024-03-22T03:21:12;15.70;;;9.27;;
71162;SDS011;58858;50.948;6.566;2024-03-22T03:31:13;18.58;;;11.13;;
71162;SDS011;58858;50.948;6.566;2024-03-22T03:41:14;18.33;;;9.38;;
71162;SDS011;58858;50.948;6.566;2024-03-22T03:51:15;14.68;;;8.75;;
71162;SDS011;58858;50.948;6.566;2024-03-22T04:01:16;19.17;;;11.10;;
71162;SDS011;58858;50.948;6.566;2024-03-22T04:11:18;21.77;;;12.40;;
71162;SDS011;58858;50.948;6.566;2024-03-22T04:21:19;17.67;;;10.23;;
71162;SDS011;58858;50.948;6.566;2024-03-22T04:31:20;17.75;;;9.52;;
71162;SDS011;58858;50.948;6.566;2024-03-22T04:41:22;14.50;;;9.35;;
71162;SDS011;58858;50.948;6.566;2024-03-22T04:51:23;14.68;;;9.20;;
71162;SDS011;58858;50.948;6.566;2024-03-22T05:01:24;16.13;;;10.00;;
71162;SDS011;58858;50.948;6.566;2024-03-22T05:11:25;18.95;;;11.10;;
71162;SDS011;58858;50.948;6.566;2024-03-22T05:21:26;18.70;;;10.57;;
71162;SDS011;58858;50.948;6.566;2024-03-22T05:31:28;19.23;;;12.32;;
71162;SDS011;58858;50.948;6.566;2024-03-22T05:41:29;28.05;;;14.00;;
71162;SDS011;58858;50.948;6.566;2024-03-22T05:51:31;22.70;;;12.95;;
71162;SDS011;58858;50.948;6.566;2024-03-22T06:01:32;30.10;;;15.45;;
71162;SDS011;58858;50.948;6.566;2024-03-22T06:11:33;20.35;;;13.13;;
71162;SDS011;58858;50.948;6.566;2024-03-22T06:21:34;20.83;;;13.80;;
71162;SDS011;58858;50.948;6.566;2024-03-22T06:31:35;27.73;;;14.35;;
71162;SDS011;58858;50.948;6.566;2024-03-22T06:41:36;21.05;;;14.20;;
71162;SDS011;58858;50.948;6.566;2024-03-22T06:51:38;21.05;;;12.93;;
71162;SDS011;58858;50.948;6.566;2024-03-22T07:01:39;18.25;;;11.95;;
71162;SDS011;58858;50.948;6.566;2024-03-22T07:11:40;19.65;;;8.80;;
71162;SDS011;58858;50.948;6.566;2024-03-22T07:21:41;16.88;;;8.23;;
71162;SDS011;58858;50.948;6.566;2024-03-22T07:31:42;14.40;;;8.80;;
71162;SDS011;58858;50.948;6.566;2024-03-22T07:41:43;12.98;;;7.13;;
71162;SDS011;58858;50.948;6.566;2024-03-22T07:51:44;14.63;;;8.30;;
71162;SDS011;58858;50.948;6.566;2024-03-22T08:01:46;18.42;;;8.93;;
71162;SDS011;58858;50.948;6.566;2024-03-22T08:11:47;15.48;;;8.18;;
71162;SDS011;58858;50.948;6.566;2024-03-22T08:21:48;18.77;;;8.15;;
71162;SDS011;58858;50.948;6.566;2024-03-22T08:31:50;12.18;;;8.00;;
71162;SDS011;58858;50.948;6.566;2024-03-22T08:41:51;17.65;;;8.95;;
71162;SDS011;58858;50.948;6.566;2024-03-22T08:51:52;11.88;;;6.80;;
71162;SDS011;58858;50.948;6.566;2024-03-22T09:01:53;12.18;;;7.45;;
71162;SDS011;58858;50.948;6.566;2024-03-22T09:11:54;14.32;;;6.78;;
71162;SDS011;58858;50.948;6.566;2024-03-22T09:21:58;12.45;;;6.32;;
71162;SDS011;58858;50.948;6.566;2024-03-22T09:31:59;10.18;;;6.50;;
71162;SDS011;58858;50.948;6.566;2024-03-22T09:42:00;9.23;;;5.78;;
71162;SDS011;58858;50.948;6.566;2024-03-22T09:52:01;11.73;;;7.05;;
71162;SDS011;58858;50.948;6.566;2024-03-22T10:02:03;10.90;;;7.32;;
71162;SDS011;58858;50.948;6.566;2024-03-22T10:12:04;14.73;;;8.20;;
71162;SDS011;58858;50.948;6.566;2024-03-22T10:22:05;12.15;;;7.97;;
71162;SDS011;58858;50.948;6.566;2024-03-22T10:32:06;16.08;;;9.52;;
71162;SDS011;58858;50.948;6.566;2024-03-22T10:42:10;15.27;;;8.80;;
71162;SDS011;58858;50.948;6.566;2024-03-22T10:52:12;12.20;;;9.13;;
71162;SDS011;58858;50.948;6.566;2024-03-22T11:02:14;13.50;;;9.63;;
71162;SDS011;58858;50.948;6.566;2024-03-22T11:12:18;13.90;;;8.93;;
71162;SDS011;58858;50.948;6.566;2024-03-22T11:22:20;14.45;;;8.85;;
71162;SDS011;58858;50.948;6.566;2024-03-22T11:32:22;14.77;;;10.02;;
71162;SDS011;58858;50.948;6.566;2024-03-22T11:42:23;15.85;;;8.60;;
71162;SDS011;58858;50.948;6.566;2024-03-22T11:52:27;15.43;;;8.55;;
71162;SDS011;58858;50.948;6.566;2024-03-22T12:02:31;15.10;;;9.38;;
71162;SDS011;58858;50.948;6.566;2024-03-22T12:12:32;14.13;;;8.73;;
71162;SDS011;58858;50.948;6.566;2024-03-22T12:22:34;17.52;;;9.25;;
71162;SDS011;58858;50.948;6.566;2024-03-22T12:32:35;14.07;;;10.15;;
71162;SDS011;58858;50.948;6.566;2024-03-22T12:42:36;18.00;;;11.50;;
71162;SDS011;58858;50.948;6.566;2024-03-22T12:52:37;18.40;;;11.95;;
71162;SDS011;58858;50.948;6.566;2024-03-22T13:02:39;15.18;;;10.77;;
71162;SDS011;58858;50.948;6.566;2024-03-22T13:12:41;17.48;;;10.85;;
71162;SDS011;58858;50.948;6.566;2024-03-22T13:22:42;14.45;;;9.75;;
71162;SDS011;58858;50.948;6.566;2024-03-22T13:32:43;15.57;;;7.60;;
71162;SDS011;58858;50.948;6.566;2024-03-22T13:42:44;10.40;;;5.90;;
71162;SDS011;58858;50.948;6.566;2024-03-22T13:52:45;15.30;;;6.90;;
71162;SDS011;58858;50.948;6.566;2024-03-22T14:02:46;15.25;;;7.70;;
71162;SDS011;58858;50.948;6.566;2024-03-22T14:12:53;13.77;;;8.18;;
71162;SDS011;58858;50.948;6.566;2024-03-22T14:22:54;12.70;;;8.73;;
71162;SDS011;58858;50.948;6.566;2024-03-22T14:32:55;14.13;;;9.55;;
71162;SDS011;58858;50.948;6.566;2024-03-22T14:42:57;10.68;;;8.07;;
71162;SDS011;58858;50.948;6.566;2024-03-22T14:52:58;13.43;;;9.32;;
71162;SDS011;58858;50.948;6.566;2024-03-22T15:02:59;14.55;;;9.52;;
71162;SDS011;58858;50.948;6.566;2024-03-22T15:13:00;23.50;;;10.15;;
71162;SDS011;58858;50.948;6.566;2024-03-22T15:23:01;15.98;;;10.73;;
71162;SDS011;58858;50.948;6.566;2024-03-22T15:33:02;16.30;;;10.75;;
71162;SDS011;58858;50.948;6.566;2024-03-22T15:43:06;15.40;;;10.52;;
71162;SDS011;58858;50.948;6.566;2024-03-22T15:53:09;17.52;;;11.52;;
71162;SDS011;58858;50.948;6.566;2024-03-22T16:03:14;17.63;;;12.45;;
71162;SDS011;58858;50.948;6.566;2024-03-22T16:13:15;18.20;;;13.63;;
71162;SDS011;58858;50.948;6.566;2024-03-22T16:23:16;23.83;;;15.15;;
71162;SDS011;58858;50.948;6.566;2024-03-22T16:33:18;22.00;;;15.57;;
71162;SDS011;58858;50.948;6.566;2024-03-22T16:43:19;21.67;;;14.95;;
71162;SDS011;58858;50.948;6.566;2024-03-22T16:53:23;19.13;;;13.20;;
71162;SDS011;58858;50.948;6.566;2024-03-22T17:03:26;21.15;;;15.52;;
71162;SDS011;58858;50.948;6.566;2024-03-22T17:13:27;23.63;;;16.63;;
71162;SDS011;58858;50.948;6.566;2024-03-22T17:23:28;19.65;;;14.07;;
71162;SDS011;58858;50.948;6.566;2024-03-22T17:33:29;20.25;;;12.85;;
71162;SDS011;58858;50.948;6.566;2024-03-22T17:43:30;19.60;;;13.15;;
71162;SDS011;58858;50.948;6.566;2024-03-22T17:53:31;17.73;;;11.00;;
71162;SDS011;58858;50.948;6.566;2024-03-22T18:03:32;13.75;;;10.73;;
71162;SDS011;58858;50.948;6.566;2024-03-22T18:13:33;15.05;;;10.80;;
71162;SDS011;58858;50.948;6.566;2024-03-22T18:23:36;15.05;;;11.20;;
71162;SDS011;58858;50.948;6.566;2024-03-22T18:33:37;12.93;;;9.52;;
71162;SDS011;58858;50.948;6.566;2024-03-22T18:43:38;10.27;;;7.57;;
71162;SDS011;58858;50.948;6.566;2024-03-22T18:53:39;8.52;;;6.30;;
71162;SDS011;58858;50.948;6.566;2024-03-22T19:03:41;11.65;;;6.65;;
71162;SDS011;58858;50.948;6.566;2024-03-22T19:13:42;8.30;;;6.45;;
71162;SDS011;58858;50.948;6.566;2024-03-22T19:23:43;8.93;;;7.25;;
71162;SDS011;58858;50.948;6.566;2024-03-22T19:33:44;11.75;;;8.20;;
71162;SDS011;58858;50.948;6.566;2024-03-22T19:43:46;8.52;;;6.40;;
71162;SDS011;58858;50.948;6.566;2024-03-22T19:53:47;9.48;;;6.97;;
71162;SDS011;58858;50.948;6.566;2024-03-22T20:03:48;9.85;;;7.05;;
71162;SDS011;58858;50.948;6.566;2024-03-22T20:13:50;10.25;;;6.72;;
71162;SDS011;58858;50.948;6.566;2024-03-22T20:23:51;9.20;;;7.15;;
71162;SDS011;58858;50.948;6.566;2024-03-22T20:33:54;4.53;;;3.35;;
